Time;durP1;ratioP1;P1;durP2;ratioP2;P2;SDS_P1;SDS_P2;PMS_P1;PMS_P2;Temp;Humidity;BMP_temperature;BMP_pressure;BME280_temperature;BME280_humidity;BME280_pressure;Samples;Min_cycle;Max_cycle;Signal;HPM_P1;HPM_P2
2022/08/31 00:05:22;;;;;;;2.45;0.57;;;17.30;93.10;;;;;;5105313;27;40749;-59
2022/08/31 00:07:50;;;;;;;2.00;0.70;;;17.30;93.20;;;;;;5104361;27;37239;-59
2022/08/31 00:10:19;;;;;;;2.60;0.60;;;17.20;93.30;;;;;;5104519;27;37719;-59
2022/08/31 00:12:48;;;;;;;2.17;0.60;;;17.30;93.30;;;;;;5105478;27;36791;-60
2022/08/31 00:15:20;;;;;;;2.53;0.88;;;17.20;93.30;;;;;;5107216;27;36663;-59
2022/08/31 00:17:47;;;;;;;4.45;0.68;;;17.20;93.40;;;;;;5105376;27;36405;-59
2022/08/31 00:20:17;;;;;;;3.33;0.68;;;17.20;93.50;;;;;;5105759;27;39068;-59
2022/08/31 00:22:45;;;;;;;1.40;0.70;;;17.20;93.50;;;;;;5104788;27;36259;-59
2022/08/31 00:25:13;;;;;;;5.00;0.80;;;17.10;93.50;;;;;;5104816;27;38363;-59
2022/08/31 00:27:40;;;;;;;2.08;0.50;;;17.10;93.50;;;;;;5103234;27;37976;-59
2022/08/31 00:30:09;;;;;;;1.30;0.68;;;17.10;93.60;;;;;;5104491;27;36516;-59
2022/08/31 00:32:36;;;;;;;1.50;0.60;;;17.10;93.70;;;;;;5104788;27;38982;-59
2022/08/31 00:35:05;;;;;;;1.83;0.60;;;17.00;93.70;;;;;;5104772;27;40643;-60
2022/08/31 00:37:32;;;;;;;2.53;0.47;;;17.00;93.80;;;;;;5105584;27;38882;-60
2022/08/31 00:40:01;;;;;;;1.50;0.68;;;16.90;93.90;;;;;;5104228;27;37687;-60
2022/08/31 00:42:28;;;;;;;2.70;0.70;;;16.90;93.90;;;;;;5104867;27;37787;-60
2022/08/31 00:44:56;;;;;;;1.38;0.75;;;16.90;94.00;;;;;;5104679;27;38244;-60
2022/08/31 00:47:23;;;;;;;2.33;0.60;;;16.90;94.10;;;;;;5104425;27;37533;-60
2022/08/31 00:49:51;;;;;;;1.25;0.68;;;16.90;94.10;;;;;;5103527;27;36350;-60
2022/08/31 00:52:24;;;;;;;3.72;0.70;;;16.90;94.10;;;;;;5104193;27;37940;-60
2022/08/31 00:54:55;;;;;;;1.45;0.63;;;16.80;94.10;;;;;;5103456;27;36441;-60
2022/08/31 00:57:31;;;;;;;1.50;0.70;;;16.80;94.20;;;;;;5105116;27;20176;-60
2022/08/31 01:00:00;;;;;;;2.42;0.75;;;16.70;94.30;;;;;;5103594;27;36649;-60
2022/08/31 01:02:27;;;;;;;1.70;0.52;;;16.70;94.40;;;;;;5104411;27;37622;-60
2022/08/31 01:04:55;;;;;;;1.90;0.63;;;16.70;94.50;;;;;;5104353;27;37601;-60
2022/08/31 01:07:23;;;;;;;1.23;0.60;;;16.70;94.50;;;;;;5102856;27;36985;-60
2022/08/31 01:09:50;;;;;;;3.03;0.90;;;16.70;94.50;;;;;;5103413;27;36414;-61
2022/08/31 01:12:18;;;;;;;1.52;0.73;;;16.60;94.50;;;;;;5103481;27;38475;-60
2022/08/31 01:14:47;;;;;;;4.22;0.70;;;16.60;94.50;;;;;;5105305;27;36743;-60
2022/08/31 01:17:16;;;;;;;1.83;0.82;;;16.60;94.60;;;;;;5104437;27;37254;-60
2022/08/31 01:19:52;;;;;;;1.40;0.57;;;16.50;94.60;;;;;;5104095;27;35713;-60
2022/08/31 01:22:27;;;;;;;2.25;0.77;;;16.50;94.60;;;;;;5103993;27;39507;-60
2022/08/31 01:24:57;;;;;;;1.17;0.70;;;16.50;94.60;;;;;;5103733;27;38320;-60
2022/08/31 01:27:28;;;;;;;2.75;0.68;;;16.40;94.60;;;;;;5102996;27;39228;-60
2022/08/31 01:29:59;;;;;;;2.28;0.80;;;16.50;94.60;;;;;;5104467;27;37111;-60
2022/08/31 01:32:26;;;;;;;0.60;0.45;;;16.40;94.60;;;;;;5102591;27;36328;-60
2022/08/31 01:34:54;;;;;;;2.03;0.70;;;16.40;94.60;;;;;;5102853;27;38068;-60
2022/08/31 01:37:21;;;;;;;2.00;0.70;;;16.30;94.60;;;;;;5103138;27;37336;-61
2022/08/31 01:39:49;;;;;;;2.03;0.80;;;16.30;94.60;;;;;;5104063;27;37306;-60
2022/08/31 01:42:18;;;;;;;1.63;0.63;;;16.30;94.70;;;;;;5103056;27;37735;-60
2022/08/31 01:44:45;;;;;;;1.80;0.52;;;16.30;94.70;;;;;;5102740;27;36391;-60
2022/08/31 01:47:13;;;;;;;0.73;0.52;;;16.20;94.70;;;;;;5103280;27;37993;-60
2022/08/31 01:49:40;;;;;;;1.90;0.70;;;16.20;94.70;;;;;;5102403;27;38633;-60
2022/08/31 01:52:07;;;;;;;2.25;0.70;;;16.20;94.70;;;;;;5104273;27;38392;-60
2022/08/31 01:54:35;;;;;;;2.78;0.65;;;16.20;94.80;;;;;;5103710;27;38390;-60
2022/08/31 01:57:02;;;;;;;3.63;0.60;;;16.20;94.60;;;;;;5102599;27;38044;-60
2022/08/31 01:59:31;;;;;;;3.40;0.50;;;16.20;94.50;;;;;;5104261;27;36754;-60
2022/08/31 02:01:58;;;;;;;2.42;0.80;;;16.10;94.50;;;;;;5101076;27;39062;-60
2022/08/31 02:04:28;;;;;;;1.15;0.52;;;16.10;94.50;;;;;;5104171;27;38267;-60
2022/08/31 02:06:59;;;;;;;1.65;0.65;;;16.10;94.50;;;;;;5103662;27;37412;-60
2022/08/31 02:09:27;;;;;;;4.60;0.60;;;16.10;94.50;;;;;;5103800;27;38519;-60
2022/08/31 02:11:54;;;;;;;1.42;0.60;;;16.10;94.50;;;;;;5105820;27;38151;-60
2022/08/31 02:14:22;;;;;;;3.47;0.50;;;16.10;94.60;;;;;;5106317;27;38384;-60
2022/08/31 02:16:51;;;;;;;1.65;0.50;;;16.10;94.70;;;;;;5106784;27;37613;-61
2022/08/31 02:19:18;;;;;;;1.90;0.68;;;16.10;94.70;;;;;;5105839;27;37438;-61
2022/08/31 02:21:46;;;;;;;1.83;0.82;;;16.10;94.70;;;;;;5106092;27;38283;-60
2022/08/31 02:24:13;;;;;;;0.88;0.50;;;16.00;94.70;;;;;;5105666;27;37698;-60
2022/08/31 02:26:41;;;;;;;1.10;0.50;;;16.10;94.70;;;;;;5107820;27;38080;-61
2022/08/31 02:29:08;;;;;;;1.95;0.60;;;16.00;94.70;;;;;;5106124;27;37370;-60
2022/08/31 02:31:36;;;;;;;1.92;0.68;;;16.00;94.80;;;;;;5106112;27;37470;-60
2022/08/31 02:34:05;;;;;;;3.88;0.60;;;16.00;94.70;;;;;;5105410;27;36389;-60
2022/08/31 02:36:32;;;;;;;1.63;0.80;;;16.00;94.50;;;;;;5106850;27;36182;-60
2022/08/31 02:39:00;;;;;;;3.03;0.60;;;15.90;94.40;;;;;;5107562;27;37779;-60
2022/08/31 02:41:27;;;;;;;1.30;0.93;;;15.90;94.30;;;;;;5106310;27;38025;-60
2022/08/31 02:43:55;;;;;;;1.05;0.50;;;15.90;94.30;;;;;;5106017;27;36504;-61
2022/08/31 02:46:22;;;;;;;1.48;0.70;;;15.80;94.40;;;;;;5105770;27;36766;-60
2022/08/31 02:48:49;;;;;;;2.08;0.75;;;15.80;94.50;;;;;;5101464;27;34809;-60
2022/08/31 02:51:18;;;;;;;6.72;1.40;;;15.70;94.70;;;;;;5105064;27;36360;-60
2022/08/31 02:53:45;;;;;;;5.85;0.80;;;15.70;94.80;;;;;;5104183;27;37716;-60
2022/08/31 02:56:14;;;;;;;4.97;0.80;;;15.70;95.00;;;;;;5105368;27;37417;-60
2022/08/31 02:58:41;;;;;;;5.10;0.90;;;15.70;95.00;;;;;;5105009;27;37066;-61
2022/08/31 03:01:09;;;;;;;1.92;0.75;;;15.60;95.10;;;;;;5104953;27;38269;-60
2022/08/31 03:03:37;;;;;;;4.35;0.70;;;15.60;95.10;;;;;;5106311;27;36553;-60
2022/08/31 03:06:05;;;;;;;5.88;0.68;;;15.60;95.20;;;;;;5105275;27;37728;-60
2022/08/31 03:08:33;;;;;;;3.67;0.63;;;15.60;95.20;;;;;;5106713;27;36623;-60
2022/08/31 03:11:01;;;;;;;1.45;0.65;;;15.60;95.30;;;;;;5104761;27;38817;-60
2022/08/31 03:13:28;;;;;;;1.15;0.60;;;15.60;95.40;;;;;;5106626;27;37782;-60
2022/08/31 03:15:56;;;;;;;1.15;0.45;;;15.50;95.40;;;;;;5105005;27;37585;-60
2022/08/31 03:18:23;;;;;;;2.58;0.60;;;15.60;95.50;;;;;;5104774;27;36513;-60
2022/08/31 03:20:50;;;;;;;1.52;0.57;;;15.60;95.60;;;;;;5105689;27;38583;-60
2022/08/31 03:23:18;;;;;;;2.33;0.60;;;15.60;95.60;;;;;;5104842;27;38736;-60
2022/08/31 03:25:46;;;;;;;1.00;0.50;;;15.50;95.70;;;;;;5106255;27;38602;-60
2022/08/31 03:28:14;;;;;;;0.88;0.50;;;15.50;95.70;;;;;;5104226;27;38445;-60
2022/08/31 03:30:41;;;;;;;3.53;0.80;;;15.50;95.80;;;;;;5105353;27;36586;-60
2022/08/31 03:33:09;;;;;;;3.67;1.00;;;15.50;95.80;;;;;;5104293;27;39529;-60
2022/08/31 03:35:36;;;;;;;1.80;0.73;;;15.50;95.90;;;;;;5105549;27;37452;-60
2022/08/31 03:38:04;;;;;;;2.00;0.70;;;15.50;96.00;;;;;;5107509;27;36791;-60
2022/08/31 03:40:31;;;;;;;1.25;0.60;;;15.50;96.00;;;;;;5106174;27;37015;-60
2022/08/31 03:43:00;;;;;;;1.48;0.52;;;15.50;96.10;;;;;;5105902;27;37921;-60
2022/08/31 03:45:28;;;;;;;2.80;0.52;;;15.50;96.10;;;;;;5104026;27;38158;-60
2022/08/31 03:47:56;;;;;;;1.05;0.60;;;15.50;96.20;;;;;;5107277;27;37635;-60
2022/08/31 03:50:23;;;;;;;1.55;0.65;;;15.50;96.20;;;;;;5104279;27;36635;-60
2022/08/31 03:52:53;;;;;;;1.00;0.60;;;15.50;96.20;;;;;;5105386;27;38317;-60
2022/08/31 03:55:20;;;;;;;2.28;0.57;;;15.40;96.30;;;;;;5104287;27;37968;-60
2022/08/31 03:57:47;;;;;;;2.10;0.70;;;15.40;96.30;;;;;;5107049;27;37845;-60
2022/08/31 04:00:16;;;;;;;1.58;0.80;;;15.50;96.50;;;;;;5105272;27;37994;-60
2022/08/31 04:02:44;;;;;;;1.77;0.88;;;15.40;96.60;;;;;;5105088;27;38462;-60
2022/08/31 04:05:12;;;;;;;2.08;0.80;;;15.40;96.70;;;;;;5105484;27;36201;-60
2022/08/31 04:07:40;;;;;;;2.53;0.88;;;15.40;96.80;;;;;;5104809;27;36409;-60
2022/08/31 04:10:08;;;;;;;1.30;0.70;;;15.40;96.80;;;;;;5105913;27;37641;-60
2022/08/31 04:12:35;;;;;;;1.60;0.60;;;15.40;96.90;;;;;;5104813;27;40704;-60
2022/08/31 04:15:02;;;;;;;3.83;0.90;;;15.40;96.80;;;;;;5104687;27;37305;-60
2022/08/31 04:17:31;;;;;;;2.25;0.77;;;15.40;96.70;;;;;;5104880;27;35469;-60
2022/08/31 04:19:58;;;;;;;1.33;0.63;;;15.40;96.70;;;;;;5104255;27;36357;-60
2022/08/31 04:22:26;;;;;;;1.70;0.95;;;15.40;96.70;;;;;;5105171;27;37605;-60
2022/08/31 04:24:53;;;;;;;2.97;0.90;;;15.30;96.70;;;;;;5104942;27;37507;-60
2022/08/31 04:27:20;;;;;;;3.25;0.70;;;15.30;96.80;;;;;;5106071;27;38872;-60
2022/08/31 04:29:48;;;;;;;1.60;0.70;;;15.30;97.00;;;;;;5103600;27;37510;-60
2022/08/31 04:32:15;;;;;;;1.85;0.75;;;15.30;97.10;;;;;;5102510;27;36810;-60
2022/08/31 04:34:44;;;;;;;3.70;0.80;;;15.30;97.20;;;;;;5104646;27;37216;-60
2022/08/31 04:37:13;;;;;;;2.60;1.00;;;15.20;97.30;;;;;;5105524;27;38380;-60
2022/08/31 04:39:41;;;;;;;2.47;1.02;;;15.20;97.40;;;;;;5105482;27;39269;-60
2022/08/31 04:42:09;;;;;;;3.17;1.00;;;15.20;97.50;;;;;;5106350;27;38986;-60
2022/08/31 04:44:36;;;;;;;2.47;0.95;;;15.20;97.60;;;;;;5104174;27;39225;-60
2022/08/31 04:47:04;;;;;;;1.42;0.80;;;15.30;97.60;;;;;;5102973;27;37209;-60
2022/08/31 04:49:31;;;;;;;1.70;0.90;;;15.20;97.70;;;;;;5105535;27;37406;-60
2022/08/31 04:52:00;;;;;;;1.88;0.70;;;15.20;97.70;;;;;;5105000;27;38043;-60
2022/08/31 04:54:28;;;;;;;6.07;1.02;;;15.30;97.80;;;;;;5103970;27;38760;-60
2022/08/31 04:56:57;;;;;;;3.15;0.93;;;15.30;97.90;;;;;;5104120;27;37653;-60
2022/08/31 04:59:26;;;;;;;1.70;0.95;;;15.20;97.90;;;;;;5103776;27;40232;-60
2022/08/31 05:01:54;;;;;;;3.40;1.02;;;15.30;98.00;;;;;;5103230;27;38264;-60
2022/08/31 05:04:23;;;;;;;4.47;0.93;;;15.30;98.00;;;;;;5104044;27;37546;-60
2022/08/31 05:06:50;;;;;;;5.40;1.00;;;15.30;98.10;;;;;;5102600;27;38725;-60
2022/08/31 05:09:22;;;;;;;2.45;1.02;;;15.30;98.40;;;;;;5103629;27;37432;-61
2022/08/31 05:11:50;;;;;;;3.05;1.00;;;15.30;98.20;;;;;;5099947;27;37326;-60
2022/08/31 05:14:18;;;;;;;2.92;0.82;;;15.30;98.30;;;;;;5101285;27;37975;-60
2022/08/31 05:16:45;;;;;;;4.30;1.20;;;15.40;98.40;;;;;;5102236;27;37255;-60
2022/08/31 05:19:13;;;;;;;2.42;1.05;;;15.40;98.40;;;;;;5103970;27;38912;-60
2022/08/31 05:21:42;;;;;;;3.60;1.10;;;15.50;98.40;;;;;;5102999;27;38009;-60
2022/08/31 05:24:11;;;;;;;1.83;1.08;;;15.60;98.40;;;;;;5104195;27;37863;-60
2022/08/31 05:26:43;;;;;;;3.08;1.30;;;15.70;98.20;;;;;;5103141;27;35289;-60
2022/08/31 05:29:12;;;;;;;3.10;1.00;;;15.90;98.10;;;;;;5103238;27;36497;-60
2022/08/31 05:31:40;;;;;;;2.35;1.10;;;16.10;97.90;;;;;;5102980;27;37949;-60
2022/08/31 05:34:08;;;;;;;2.90;0.90;;;16.20;97.60;;;;;;5102856;27;38229;-60
2022/08/31 05:36:35;;;;;;;1.95;0.90;;;16.40;97.40;;;;;;5101765;27;36556;-60
2022/08/31 05:39:03;;;;;;;2.10;0.90;;;16.70;96.60;;;;;;5101438;27;37527;-61
2022/08/31 05:41:31;;;;;;;2.72;1.00;;;17.20;95.90;;;;;;5101531;27;37705;-60
2022/08/31 05:43:59;;;;;;;1.38;0.90;;;17.60;94.90;;;;;;5103738;27;36307;-60
2022/08/31 05:46:28;;;;;;;3.85;1.10;;;18.20;94.00;;;;;;5100311;27;35457;-61
2022/08/31 05:48:56;;;;;;;2.60;0.88;;;18.80;92.70;;;;;;5102384;27;38672;-60
2022/08/31 05:51:23;;;;;;;2.22;1.02;;;18.90;92.00;;;;;;5102483;27;37752;-60
2022/08/31 05:53:51;;;;;;;2.38;0.65;;;18.90;91.80;;;;;;5101733;27;37147;-61
2022/08/31 05:56:20;;;;;;;1.40;0.80;;;18.70;92.10;;;;;;5103630;27;37242;-61
2022/08/31 05:58:48;;;;;;;2.30;1.00;;;18.40;92.60;;;;;;5102911;27;38533;-60
2022/08/31 06:01:19;;;;;;;9.35;1.30;;;18.20;93.20;;;;;;5102019;27;39061;-60
2022/08/31 06:03:48;;;;;;;4.57;1.38;;;17.90;94.00;;;;;;5098927;27;36363;-60
2022/08/31 06:06:16;;;;;;;2.83;0.90;;;17.60;94.60;;;;;;5104819;27;37716;-60
2022/08/31 06:08:44;;;;;;;2.53;1.00;;;17.50;95.40;;;;;;5105146;27;36276;-60
2022/08/31 06:11:18;;;;;;;3.55;1.10;;;17.50;95.50;;;;;;5105051;27;36604;-60
2022/08/31 06:13:46;;;;;;;2.90;1.10;;;17.40;95.80;;;;;;5105431;27;37578;-60
2022/08/31 06:16:16;;;;;;;2.47;1.10;;;17.40;96.20;;;;;;5104790;27;36758;-60
2022/08/31 06:18:48;;;;;;;5.25;1.10;;;17.30;96.40;;;;;;5103295;27;38138;-60
2022/08/31 06:21:17;;;;;;;2.00;1.10;;;17.30;96.70;;;;;;5104261;27;38560;-60
2022/08/31 06:23:44;;;;;;;5.53;1.13;;;17.30;96.80;;;;;;5103684;27;37842;-60
2022/08/31 06:26:14;;;;;;;4.40;1.02;;;17.20;96.90;;;;;;5104693;27;35637;-60
2022/08/31 06:28:43;;;;;;;4.32;1.30;;;17.20;97.10;;;;;;5103650;27;38465;-60
2022/08/31 06:31:14;;;;;;;2.25;1.00;;;17.20;97.30;;;;;;5103777;27;39016;-60
2022/08/31 06:33:44;;;;;;;2.75;0.95;;;17.30;97.50;;;;;;5104932;27;38356;-60
2022/08/31 06:36:13;;;;;;;2.55;1.00;;;17.30;97.50;;;;;;5105411;27;35991;-60
2022/08/31 06:38:42;;;;;;;2.42;1.05;;;17.30;97.70;;;;;;5104289;27;37972;-60
2022/08/31 06:41:15;;;;;;;2.08;0.90;;;17.40;97.80;;;;;;5105479;27;38524;-60
2022/08/31 06:43:42;;;;;;;2.15;1.00;;;17.40;97.90;;;;;;5106125;27;38649;-59
2022/08/31 06:46:10;;;;;;;1.73;0.80;;;17.40;98.00;;;;;;5105112;27;37665;-60
2022/08/31 06:48:41;;;;;;;2.85;1.00;;;17.50;98.00;;;;;;5104418;27;37775;-60
2022/08/31 06:51:13;;;;;;;1.83;0.85;;;17.40;97.90;;;;;;5103347;27;37806;-60
2022/08/31 06:53:42;;;;;;;4.13;0.80;;;17.50;98.10;;;;;;5104861;27;37494;-60
2022/08/31 06:56:12;;;;;;;3.35;0.98;;;17.50;97.80;;;;;;5105371;27;36408;-60
2022/08/31 06:58:39;;;;;;;2.67;0.80;;;17.60;97.90;;;;;;5107049;27;38307;-60
2022/08/31 07:01:08;;;;;;;2.17;0.73;;;17.60;97.80;;;;;;5107591;27;36664;-60
2022/08/31 07:03:37;;;;;;;4.97;0.75;;;17.70;97.50;;;;;;5108146;27;37767;-60
2022/08/31 07:06:07;;;;;;;5.63;0.60;;;17.70;97.00;;;;;;5107961;27;35304;-61
2022/08/31 07:08:36;;;;;;;4.45;1.00;;;17.80;96.80;;;;;;5106369;27;37891;-60
2022/08/31 07:11:11;;;;;;;5.38;0.70;;;17.80;96.60;;;;;;5105079;27;36375;-60
2022/08/31 07:13:38;;;;;;;2.25;0.55;;;17.80;96.40;;;;;;5101462;27;36015;-61
2022/08/31 07:16:07;;;;;;;3.03;0.85;;;17.90;96.00;;;;;;5104808;27;36607;-60
2022/08/31 07:18:35;;;;;;;1.80;0.70;;;18.00;95.80;;;;;;5102483;27;37565;-60
2022/08/31 07:21:16;;;;;;;1.70;0.60;;;18.00;95.60;;;;;;5104592;27;36520;-61
2022/08/31 07:23:46;;;;;;;3.78;1.35;;;18.10;95.70;;;;;;5102927;27;38434;-61
2022/08/31 07:26:16;;;;;;;2.58;0.63;;;18.10;95.60;;;;;;5104071;27;36546;-61
2022/08/31 07:28:44;;;;;;;3.30;0.55;;;18.20;94.70;;;;;;5106841;27;36367;-60
2022/08/31 07:31:14;;;;;;;1.77;0.60;;;18.20;94.50;;;;;;5106563;27;38558;-61
2022/08/31 07:33:42;;;;;;;2.65;0.85;;;18.30;94.30;;;;;;5106787;27;37319;-61
2022/08/31 07:36:11;;;;;;;7.05;1.00;;;18.40;94.30;;;;;;5107658;27;35492;-60
2022/08/31 07:44:28;;;;;;;2.65;0.70;;;18.50;93.30;;;;;;5047786;28;38846;-60
2022/08/31 07:46:56;;;;;;;4.80;0.68;;;18.60;93.30;;;;;;5048882;28;37251;-61
2022/08/31 07:49:25;;;;;;;4.35;0.73;;;18.60;92.60;;;;;;5073685;27;37741;-61
2022/08/31 07:51:54;;;;;;;2.38;0.60;;;18.60;92.30;;;;;;5106942;27;37586;-61
2022/08/31 07:54:26;;;;;;;3.40;1.00;;;18.70;92.20;;;;;;5105482;27;37422;-61
2022/08/31 07:56:59;;;;;;;5.15;0.70;;;18.70;91.80;;;;;;5105492;27;35694;-61
2022/08/31 07:59:29;;;;;;;3.17;0.60;;;18.70;91.40;;;;;;5104799;27;40179;-61
2022/08/31 08:02:00;;;;;;;3.65;0.60;;;18.80;91.00;;;;;;5105734;27;37540;-62
2022/08/31 08:04:29;;;;;;;1.65;0.50;;;18.80;90.80;;;;;;5104308;27;37311;-61
2022/08/31 08:07:04;;;;;;;6.82;0.85;;;18.80;90.30;;;;;;5106434;27;35922;-62
2022/08/31 08:09:32;;;;;;;10.45;1.02;;;18.90;90.20;;;;;;5105593;27;37886;-61
2022/08/31 08:12:05;;;;;;;2.55;0.68;;;19.00;90.10;;;;;;5104805;27;37964;-61
2022/08/31 08:14:33;;;;;;;2.27;0.90;;;19.00;89.90;;;;;;5105307;27;37601;-62
2022/08/31 08:17:00;;;;;;;1.52;0.50;;;19.00;89.50;;;;;;5106394;27;38037;-62
2022/08/31 08:19:28;;;;;;;0.95;0.30;;;19.00;89.40;;;;;;5107276;27;38782;-62
2022/08/31 08:21:55;;;;;;;4.13;0.80;;;19.10;89.80;;;;;;5107080;27;39948;-62
2022/08/31 08:24:24;;;;;;;4.70;0.60;;;19.20;89.50;;;;;;5105817;27;37579;-62
2022/08/31 08:26:52;;;;;;;2.08;0.60;;;19.30;88.50;;;;;;5104926;27;36748;-61
2022/08/31 08:29:22;;;;;;;1.73;0.70;;;19.30;88.50;;;;;;5102758;27;38665;-62
2022/08/31 08:31:51;;;;;;;3.10;0.80;;;19.40;88.00;;;;;;5105824;27;38687;-62
2022/08/31 08:34:20;;;;;;;2.60;0.68;;;19.50;87.50;;;;;;5101619;27;37300;-61
2022/08/31 08:36:48;;;;;;;2.42;0.40;;;19.50;87.20;;;;;;5105076;27;37013;-61
2022/08/31 08:39:16;;;;;;;2.70;0.70;;;19.60;86.90;;;;;;5105939;27;37814;-61
2022/08/31 08:41:46;;;;;;;2.85;0.60;;;19.80;87.90;;;;;;5104537;27;36895;-61
2022/08/31 08:44:16;;;;;;;3.10;1.08;;;19.90;88.10;;;;;;5104715;27;37532;-62
2022/08/31 08:46:47;;;;;;;2.63;0.70;;;19.90;87.50;;;;;;5103310;27;35830;-62
2022/08/31 08:49:22;;;;;;;4.38;1.10;;;19.90;86.10;;;;;;5104517;27;37296;-61
2022/08/31 08:51:57;;;;;;;5.03;0.88;;;19.90;85.40;;;;;;5105189;27;37835;-61
2022/08/31 08:54:30;;;;;;;1.83;0.60;;;19.90;85.00;;;;;;5106500;27;36091;-61
2022/08/31 08:56:59;;;;;;;3.55;0.73;;;20.10;85.30;;;;;;5106143;27;37479;-62
2022/08/31 08:59:27;;;;;;;1.55;0.55;;;20.00;85.10;;;;;;5104780;27;38104;-62
2022/08/31 09:02:05;;;;;;;3.05;0.80;;;20.00;84.50;;;;;;5104816;27;37602;-61
2022/08/31 09:04:58;;;;;;;5.90;0.90;;;20.00;85.00;;;;;;5104070;27;37373;-62
2022/08/31 09:07:43;;;;;;;1.60;0.70;;;20.10;85.20;;;;;;5105042;27;36621;-61
2022/08/31 09:10:20;;;;;;;9.98;0.85;;;20.00;85.00;;;;;;5104867;27;38899;-62
2022/08/31 09:12:56;;;;;;;4.95;0.90;;;20.10;84.80;;;;;;5102623;27;38538;-61
2022/08/31 09:15:36;;;;;;;3.47;0.47;;;20.10;83.60;;;;;;5104387;27;37900;-61
2022/08/31 09:18:16;;;;;;;1.42;0.57;;;20.00;82.80;;;;;;5102848;27;36926;-61
2022/08/31 09:20:43;;;;;;;3.10;0.60;;;20.00;83.50;;;;;;5093952;27;36381;-62
2022/08/31 09:23:10;;;;;;;4.63;1.17;;;20.10;83.40;;;;;;5101293;27;39468;-62
2022/08/31 09:25:51;;;;;;;3.08;0.95;;;20.20;83.60;;;;;;5102344;27;37494;-62
2022/08/31 09:28:32;;;;;;;2.28;0.70;;;20.20;81.80;;;;;;5103448;27;36538;-61
2022/08/31 09:31:00;;;;;;;4.07;0.70;;;20.30;82.00;;;;;;5104123;27;37379;-62
2022/08/31 09:33:31;;;;;;;4.93;0.80;;;20.30;81.70;;;;;;5100207;27;39622;-62
2022/08/31 09:36:14;;;;;;;3.72;0.80;;;20.30;81.60;;;;;;5102108;27;36575;-62
2022/08/31 09:38:45;;;;;;;4.43;1.00;;;20.10;80.90;;;;;;5104642;27;35503;-62
2022/08/31 09:41:30;;;;;;;3.72;0.50;;;20.10;81.10;;;;;;5103706;27;38931;-62
2022/08/31 09:44:21;;;;;;;2.70;0.77;;;20.10;80.10;;;;;;5101938;27;37663;-62
2022/08/31 09:46:50;;;;;;;3.30;0.88;;;20.00;80.80;;;;;;5102733;27;38256;-62
2022/08/31 09:49:25;;;;;;;3.10;0.60;;;20.00;82.10;;;;;;5102986;27;37054;-61
2022/08/31 09:51:53;;;;;;;5.38;0.82;;;20.10;82.20;;;;;;5103721;27;38274;-62
2022/08/31 09:57:10;;;;;;;3.13;0.60;;;20.10;81.60;;;;;;5104102;27;37419;-62
2022/08/31 09:59:42;;;;;;;3.20;0.55;;;20.10;83.00;;;;;;5104068;27;37513;-61
2022/08/31 10:02:27;;;;;;;4.07;0.53;;;20.20;82.00;;;;;;5102290;27;37595;-61
2022/08/31 10:04:59;;;;;;;1.55;0.50;;;20.40;82.00;;;;;;5102487;27;36611;-62
2022/08/31 10:07:40;;;;;;;3.10;0.70;;;20.60;78.50;;;;;;5101243;27;38145;-61
2022/08/31 10:10:13;;;;;;;1.48;0.80;;;20.70;77.50;;;;;;5099252;27;36917;-62
2022/08/31 10:12:47;;;;;;;2.50;0.60;;;20.60;78.30;;;;;;5101150;27;40177;-59
2022/08/31 10:15:19;;;;;;;4.57;0.50;;;20.50;78.10;;;;;;5103106;27;39049;-59
2022/08/31 10:17:54;;;;;;;4.10;0.88;;;20.30;80.50;;;;;;5101142;27;38884;-59
2022/08/31 10:20:27;;;;;;;4.45;0.60;;;20.30;82.10;;;;;;5102082;27;36813;-58
2022/08/31 10:22:58;;;;;;;3.05;1.10;;;20.50;81.70;;;;;;5101148;27;38544;-59
2022/08/31 10:25:29;;;;;;;2.33;0.70;;;20.60;80.90;;;;;;5101404;27;36791;-59
2022/08/31 10:28:05;;;;;;;0.70;0.43;;;20.70;79.80;;;;;;5101835;27;37385;-59
2022/08/31 10:30:40;;;;;;;2.08;0.68;;;20.80;80.70;;;;;;5101878;27;37295;-59
2022/08/31 10:33:14;;;;;;;6.82;1.25;;;21.00;78.90;;;;;;5103791;27;38181;-59
2022/08/31 10:35:51;;;;;;;3.05;0.63;;;21.20;78.30;;;;;;5105069;27;39175;-60
2022/08/31 10:38:25;;;;;;;3.45;0.70;;;21.40;76.30;;;;;;5105548;27;37891;-60
2022/08/31 10:41:06;;;;;;;1.73;0.68;;;21.50;74.70;;;;;;5105691;27;36449;-59
2022/08/31 10:43:43;;;;;;;3.70;0.60;;;21.60;73.30;;;;;;5105669;27;37594;-59
2022/08/31 10:46:10;;;;;;;4.35;0.93;;;21.70;71.70;;;;;;5095748;27;36703;-59
2022/08/31 10:48:39;;;;;;;3.72;0.50;;;21.80;72.20;;;;;;5099020;27;37740;-60
2022/08/31 10:51:19;;;;;;;2.30;0.70;;;22.00;71.50;;;;;;5104336;27;36878;-59
2022/08/31 10:53:58;;;;;;;4.55;0.60;;;22.10;70.50;;;;;;5103301;27;37728;-60
2022/08/31 10:56:38;;;;;;;3.80;0.60;;;22.20;70.50;;;;;;5102828;27;38111;-60
2022/08/31 10:59:16;;;;;;;1.83;0.70;;;22.40;69.80;;;;;;5104928;27;38559;-59
2022/08/31 11:01:52;;;;;;;2.20;0.60;;;22.50;69.00;;;;;;5103414;27;36167;-59
2022/08/31 11:04:43;;;;;;;2.92;0.60;;;22.70;70.10;;;;;;5103324;27;38889;-59
2022/08/31 11:07:23;;;;;;;1.08;0.43;;;22.90;69.30;;;;;;5097609;27;36497;-59
2022/08/31 11:09:58;;;;;;;2.42;0.95;;;23.00;70.80;;;;;;5100630;27;37534;-59
2022/08/31 11:12:29;;;;;;;3.60;0.60;;;23.20;70.40;;;;;;5105420;27;36731;-59
2022/08/31 11:15:22;;;;;;;2.75;0.70;;;23.10;69.20;;;;;;5100916;27;39391;-59
2022/08/31 11:18:11;;;;;;;3.00;0.80;;;22.90;69.50;;;;;;5102036;27;38071;-59
2022/08/31 11:20:58;;;;;;;2.28;0.45;;;22.80;71.20;;;;;;5103563;27;38471;-60
2022/08/31 11:23:41;;;;;;;1.33;0.70;;;22.80;71.10;;;;;;5103415;27;36615;-59
2022/08/31 11:26:40;;;;;;;2.63;0.70;;;22.90;70.30;;;;;;5104984;27;37840;-59
2022/08/31 11:29:18;;;;;;;3.58;0.50;;;23.20;70.00;;;;;;5104904;27;37255;-59
2022/08/31 11:31:46;;;;;;;1.02;0.40;;;23.50;68.80;;;;;;5103817;27;37401;-59
2022/08/31 11:34:24;;;;;;;1.23;0.55;;;23.60;66.50;;;;;;5104490;27;36901;-60
2022/08/31 11:36:53;;;;;;;5.35;0.98;;;23.50;64.70;;;;;;5104671;27;37959;-60
2022/08/31 11:39:43;;;;;;;3.22;0.80;;;23.60;65.60;;;;;;5104677;27;38417;-59
2022/08/31 11:42:13;;;;;;;2.17;0.70;;;23.50;62.20;;;;;;5104139;27;39265;-59
2022/08/31 11:45:00;;;;;;;4.38;0.60;;;23.50;62.00;;;;;;5102143;27;36419;-60
2022/08/31 11:47:40;;;;;;;1.05;0.30;;;23.30;59.20;;;;;;5103057;27;37416;-61
2022/08/31 11:50:12;;;;;;;1.13;0.55;;;23.20;59.20;;;;;;5103724;27;36447;-59
2022/08/31 11:52:46;;;;;;;3.80;0.63;;;23.20;61.40;;;;;;5104520;27;37768;-60
2022/08/31 11:55:27;;;;;;;1.40;0.45;;;23.20;61.70;;;;;;5103718;27;37484;-61
2022/08/31 11:58:16;;;;;;;2.35;0.55;;;23.30;63.70;;;;;;5104034;27;38760;-61
2022/08/31 12:00:50;;;;;;;5.30;0.50;;;23.40;62.80;;;;;;5103438;27;36615;-61
2022/08/31 12:03:41;;;;;;;2.17;0.50;;;23.40;64.40;;;;;;5105200;27;36986;-62
2022/08/31 12:06:32;;;;;;;3.35;0.50;;;23.60;63.30;;;;;;5104639;27;36625;-62
2022/08/31 12:09:25;;;;;;;1.08;0.40;;;23.70;62.50;;;;;;5103820;27;37782;-62
2022/08/31 12:12:06;;;;;;;2.10;0.57;;;23.70;60.50;;;;;;5089931;27;38113;-61
2022/08/31 12:14:41;;;;;;;1.25;0.50;;;23.50;59.90;;;;;;5103012;27;37149;-61
2022/08/31 12:17:20;;;;;;;2.13;0.38;;;23.50;60.30;;;;;;5102812;27;39913;-61
2022/08/31 12:20:00;;;;;;;2.80;0.60;;;23.50;61.60;;;;;;5103183;27;37911;-61
2022/08/31 12:23:36;;;;;;;3.05;0.73;;;23.50;60.80;;;;;;5102924;27;39356;-61
2022/08/31 12:26:16;;;;;;;1.60;0.45;;;23.50;60.70;;;;;;5041423;27;37282;-61
2022/08/31 12:29:00;;;;;;;1.52;0.60;;;23.50;59.80;;;;;;5103981;27;36955;-62
2022/08/31 12:31:27;;;;;;;;;;;23.50;60.20;;;;;;5101590;27;38631;-61
2022/08/31 12:34:01;;;;;;;4.90;1.35;;;23.50;60.90;;;;;;5103966;27;36716;-61
2022/08/31 12:36:30;;;;;;;2.80;0.52;;;23.40;61.60;;;;;;5103739;27;36841;-61
2022/08/31 12:39:09;;;;;;;3.80;0.70;;;23.40;60.10;;;;;;5103301;27;35351;-61
2022/08/31 12:41:40;;;;;;;4.90;0.60;;;23.30;60.10;;;;;;5104339;27;38126;-61
2022/08/31 12:44:09;;;;;;;3.60;0.70;;;23.20;60.50;;;;;;5101821;27;38262;-61
2022/08/31 12:46:51;;;;;;;3.35;0.52;;;23.20;60.60;;;;;;5102396;27;37167;-61
2022/08/31 12:49:30;;;;;;;4.25;0.57;;;23.20;61.10;;;;;;5103193;27;37930;-60
2022/08/31 12:52:05;;;;;;;1.63;0.50;;;23.20;59.80;;;;;;5102611;27;37513;-61
2022/08/31 12:54:55;;;;;;;3.53;0.82;;;23.10;58.60;;;;;;5103273;27;37978;-62
2022/08/31 12:57:38;;;;;;;3.85;1.15;;;23.00;58.30;;;;;;5103236;27;37254;-62
2022/08/31 13:00:09;;;;;;;10.00;1.63;;;22.80;59.00;;;;;;5102795;27;37396;-61
2022/08/31 13:02:40;;;;;;;17.77;2.13;;;22.80;60.40;;;;;;5101521;27;37603;-62
2022/08/31 13:05:19;;;;;;;3.45;0.70;;;22.80;60.30;;;;;;5102996;27;38127;-62
2022/08/31 13:07:46;;;;;;;1.95;0.52;;;22.80;59.80;;;;;;5102166;27;39056;-62
2022/08/31 13:10:16;;;;;;;1.98;0.40;;;22.80;60.50;;;;;;5103945;27;37226;-62
2022/08/31 13:12:48;;;;;;;1.15;0.40;;;22.70;58.70;;;;;;5103195;27;38479;-61
2022/08/31 13:15:25;;;;;;;0.90;0.33;;;22.60;58.40;;;;;;5103599;27;37992;-61
2022/08/31 13:17:53;;;;;;;1.77;0.40;;;22.60;60.20;;;;;;5102264;27;37631;-61
2022/08/31 13:20:25;;;;;;;1.48;0.60;;;22.60;61.20;;;;;;5103018;27;37068;-62
2022/08/31 13:23:01;;;;;;;1.23;0.40;;;22.60;60.40;;;;;;5103398;27;38658;-61